Allen Springs, Kentucky
Current Conditions -  °F | °C
As of 6:27 PM on Wednesday 26 Nov 2014 (Local Time) from KBWG Reporting Station
Light Rain Light Rain  
Wind Chill: 35°   Ceiling: 2500
Heat Index: 41°   Visibility: 7mi
Dew Point: 33°   Wind: 9mph
Humidity: 73%   Direction: 240°WSW
Pressure: 30.05"   Gusts: NA
Location:  36.8592°N, 86.3531°W
Report Text: KBWG 270027Z AUTO 24008KT 7SM -RA BKN025 OVC044 05/01 A3005 RMK AO2 RAB12 P0000 T00500006
Loading
Personal Weather Stations






























Interactive Weather Map New forecast layout! Learn more

10-Day Weather Forecast

Advertisements
Track Severe Weather on mobile